createdAt,value
2018-09-01T00:01:57.353Z,98383.00
2018-09-01T00:04:29.136Z,98377.00
2018-09-01T00:07:00.798Z,98375.00
2018-09-01T00:09:35.272Z,98368.00
2018-09-01T00:12:08.134Z,98368.00
2018-09-01T00:14:39.850Z,98376.00
2018-09-01T00:17:15.556Z,98391.00
2018-09-01T00:19:47.311Z,98391.00
2018-09-01T00:22:19.041Z,98385.00
2018-09-01T00:24:52.674Z,98377.00
2018-09-01T00:27:24.887Z,98387.00
2018-09-01T00:29:56.552Z,98388.00
2018-09-01T00:32:28.464Z,98390.00
2018-09-01T00:35:00.415Z,98393.00
2018-09-01T00:38:35.985Z,98394.00
2018-09-01T00:41:08.018Z,98398.00
2018-09-01T00:43:39.842Z,98396.00
2018-09-01T00:46:11.929Z,98393.00
2018-09-01T00:48:43.929Z,98393.00
2018-09-01T00:51:15.863Z,98394.00
2018-09-01T00:53:47.859Z,98394.00
2018-09-01T00:56:19.906Z,98397.00
2018-09-01T00:58:51.949Z,98403.00
2018-09-01T01:01:24.014Z,98406.00
2018-09-01T01:03:55.777Z,98397.00
2018-09-01T01:06:27.562Z,98401.00
2018-09-01T01:08:59.389Z,98397.00
2018-09-01T01:11:31.164Z,98397.00
2018-09-01T01:14:02.913Z,98392.00
2018-09-01T01:16:34.774Z,98389.00
2018-09-01T01:19:06.417Z,98387.00
2018-09-01T01:21:38.114Z,98380.00
2018-09-01T01:24:09.956Z,98388.00
2018-09-01T01:26:41.723Z,98385.00
2018-09-01T01:29:13.497Z,98380.00
2018-09-01T01:31:45.219Z,98377.00
2018-09-01T01:34:17.062Z,98379.00
2018-09-01T01:36:49.272Z,98379.00
2018-09-01T01:39:21.164Z,98380.00
2018-09-01T01:41:52.801Z,98376.00
2018-09-01T01:44:24.540Z,98370.00
2018-09-01T01:46:56.209Z,98377.00
2018-09-01T01:49:28.104Z,98374.00
2018-09-01T01:51:59.709Z,98381.00
2018-09-01T01:54:31.396Z,98379.00
2018-09-01T01:57:03.142Z,98385.00
2018-09-01T01:59:34.807Z,98391.00
2018-09-01T02:02:06.658Z,98395.00
2018-09-01T02:04:38.510Z,98395.00
2018-09-01T02:07:10.294Z,98387.00
2018-09-01T02:09:41.941Z,98385.00
2018-09-01T02:12:13.697Z,98374.00
2018-09-01T02:14:45.542Z,98371.00
2018-09-01T02:17:19.780Z,98371.00
2018-09-01T02:19:52.123Z,98382.00
2018-09-01T02:22:23.986Z,98384.00
2018-09-01T02:24:55.761Z,98381.00
2018-09-01T02:27:27.666Z,98384.00
2018-09-01T02:30:00.110Z,98385.00
2018-09-01T02:32:31.875Z,98387.00
2018-09-01T02:35:03.635Z,98385.00
2018-09-01T02:37:35.283Z,98386.00
2018-09-01T02:40:07.230Z,98390.00
2018-09-01T02:42:38.973Z,98388.00
2018-09-01T02:45:10.883Z,98389.00
2018-09-01T02:47:42.527Z,98391.00
2018-09-01T02:50:14.408Z,98396.00
2018-09-01T02:52:46.031Z,98399.00
2018-09-01T02:55:17.904Z,98407.00
2018-09-01T02:57:49.685Z,98404.00
2018-09-01T03:00:26.217Z,98406.00
2018-09-01T03:02:57.997Z,98407.00
2018-09-01T03:05:29.724Z,98407.00
2018-09-01T03:08:01.721Z,98403.00
2018-09-01T03:10:33.462Z,98406.00
2018-09-01T03:13:05.235Z,98405.00
2018-09-01T03:15:37.017Z,98406.00
2018-09-01T03:18:08.741Z,98408.00
2018-09-01T03:20:40.402Z,98404.00
2018-09-01T03:23:12.177Z,98402.00
2018-09-01T03:25:43.828Z,98402.00
2018-09-01T03:28:15.548Z,98401.00
2018-09-01T03:30:47.245Z,98402.00
2018-09-01T03:33:18.965Z,98402.00
2018-09-01T03:35:50.662Z,98393.00
2018-09-01T03:38:22.313Z,98394.00
2018-09-01T03:40:54.146Z,98393.00
2018-09-01T03:43:25.955Z,98391.00
2018-09-01T03:45:57.717Z,98390.00
2018-09-01T03:48:29.750Z,98395.00
2018-09-01T03:51:01.464Z,98391.00
2018-09-01T03:53:33.162Z,98391.00
2018-09-01T03:56:04.993Z,98391.00
2018-09-01T03:58:36.930Z,98387.00
2018-09-01T04:01:08.767Z,98389.00
2018-09-01T04:03:40.585Z,98393.00
2018-09-01T04:06:12.399Z,98393.00
2018-09-01T04:08:44.027Z,98389.00
2018-09-01T04:11:15.680Z,98392.00
2018-09-01T04:13:47.521Z,98387.00
2018-09-01T04:16:19.299Z,98381.00
2018-09-01T04:18:51.246Z,98390.00
2018-09-01T04:21:23.108Z,98386.00
2018-09-01T04:23:54.917Z,98390.00
2018-09-01T04:26:26.550Z,98392.00
2018-09-01T04:28:58.282Z,98399.00
2018-09-01T04:31:29.960Z,98400.00
2018-09-01T04:34:01.718Z,98408.00
2018-09-01T04:36:33.677Z,98408.00
2018-09-01T04:39:06.311Z,98411.00
2018-09-01T04:41:38.766Z,98407.00
2018-09-01T04:44:10.805Z,98412.00
2018-09-01T04:46:42.868Z,98407.00
2018-09-01T04:49:14.815Z,98420.00
2018-09-01T04:51:46.484Z,98422.00
2018-09-01T04:54:18.249Z,98426.00
2018-09-01T04:56:50.080Z,98426.00
2018-09-01T04:59:21.999Z,98431.00
2018-09-01T05:01:53.630Z,98432.00
2018-09-01T05:04:25.381Z,98429.00
2018-09-01T05:06:57.125Z,98430.00
2018-09-01T05:09:28.811Z,98430.00
2018-09-01T05:12:00.675Z,98428.00
2018-09-01T05:14:32.313Z,98430.00
2018-09-01T05:17:04.163Z,98431.00
2018-09-01T05:19:36.122Z,98433.00
2018-09-01T05:22:07.982Z,98433.00
2018-09-01T05:24:39.659Z,98441.00
2018-09-01T05:27:11.318Z,98445.00
2018-09-01T05:29:43.065Z,98444.00
2018-09-01T05:32:14.725Z,98437.00
2018-09-01T05:34:46.574Z,98434.00
2018-09-01T05:37:18.436Z,98430.00
2018-09-01T05:39:50.101Z,98436.00
2018-09-01T05:42:21.765Z,98440.00
2018-09-01T05:44:53.553Z,98438.00
2018-09-01T05:47:25.269Z,98438.00
2018-09-01T05:49:56.943Z,98445.00
2018-09-01T05:52:28.593Z,98444.00
2018-09-01T05:55:00.366Z,98445.00
2018-09-01T05:57:32.097Z,98450.00
2018-09-01T06:00:03.794Z,98450.00
2018-09-01T06:02:35.433Z,98444.00
2018-09-01T06:05:08.090Z,98452.00
2018-09-01T06:07:39.962Z,98452.00
2018-09-01T06:10:11.918Z,98453.00
2018-09-01T06:12:43.862Z,98451.00
2018-09-01T06:15:15.553Z,98449.00
2018-09-01T06:17:47.456Z,98451.00
2018-09-01T06:20:19.169Z,98461.00
2018-09-01T06:22:50.838Z,98457.00
2018-09-01T06:25:22.584Z,98462.00
2018-09-01T06:27:55.993Z,98468.00
2018-09-01T06:30:30.540Z,98463.00
2018-09-01T06:33:02.493Z,98455.00
2018-09-01T06:35:34.117Z,98455.00
2018-09-01T06:38:05.973Z,98455.00
2018-09-01T06:40:37.742Z,98453.00
2018-09-01T06:43:09.860Z,98449.00
2018-09-01T06:45:41.490Z,98450.00
2018-09-01T06:48:13.242Z,98449.00
2018-09-01T06:50:45.080Z,98459.00
2018-09-01T06:53:16.746Z,98459.00
2018-09-01T06:55:48.511Z,98466.00
2018-09-01T06:58:20.405Z,98477.00
2018-09-01T07:00:52.121Z,98473.00
2018-09-01T07:03:23.793Z,98480.00
2018-09-01T07:05:55.523Z,98484.00
2018-09-01T07:08:27.336Z,98489.00
2018-09-01T07:10:59.079Z,98493.00
2018-09-01T07:13:30.877Z,98489.00
2018-09-01T07:16:02.577Z,98491.00
2018-09-01T07:18:34.362Z,98490.00
2018-09-01T07:21:06.280Z,98487.00
2018-09-01T07:23:37.953Z,98477.00
2018-09-01T07:26:09.765Z,98480.00
2018-09-01T07:28:41.612Z,98475.00
2018-09-01T07:31:13.558Z,98483.00
2018-09-01T07:33:45.059Z,98475.00
2018-09-01T07:36:16.844Z,98479.00
2018-09-01T07:38:48.648Z,98480.00
2018-09-01T07:41:20.287Z,98474.00
2018-09-01T07:43:52.166Z,98473.00
2018-09-01T07:46:23.877Z,98473.00
2018-09-01T07:48:55.559Z,98486.00
2018-09-01T07:51:27.322Z,98486.00
2018-09-01T07:53:59.066Z,98482.00
2018-09-01T07:56:30.912Z,98475.00
2018-09-01T07:59:02.720Z,98477.00
2018-09-01T08:01:34.341Z,98471.00
2018-09-01T08:04:06.227Z,98479.00
2018-09-01T08:06:38.048Z,98482.00
2018-09-01T08:09:11.604Z,98482.00
2018-09-01T08:11:43.221Z,98493.00
2018-09-01T08:14:15.015Z,98492.00
2018-09-01T08:16:46.871Z,98495.00
2018-09-01T08:19:18.665Z,98498.00
2018-09-01T08:21:50.474Z,98502.00
2018-09-01T08:24:22.200Z,98505.00
2018-09-01T08:26:53.976Z,98516.00
2018-09-01T08:29:25.666Z,98515.00
2018-09-01T08:31:57.380Z,98518.00
2018-09-01T08:34:29.247Z,98515.00
2018-09-01T08:37:01.046Z,98517.00
2018-09-01T08:39:32.810Z,98516.00
2018-09-01T08:42:04.619Z,98520.00
2018-09-01T08:44:36.401Z,98513.00
2018-09-01T08:47:08.181Z,98521.00
2018-09-01T08:49:40.014Z,98528.00
2018-09-01T08:52:11.776Z,98521.00
2018-09-01T08:54:43.419Z,98522.00
2018-09-01T08:57:15.089Z,98524.00
2018-09-01T08:59:46.934Z,98529.00
2018-09-01T09:02:18.606Z,98532.00
2018-09-01T09:04:50.278Z,98534.00
2018-09-01T09:07:22.154Z,98531.00
2018-09-01T09:09:54.120Z,98535.00
2018-09-01T09:12:26.952Z,98547.00
2018-09-01T09:14:58.762Z,98542.00
2018-09-01T09:17:30.392Z,98543.00
2018-09-01T09:20:02.154Z,98547.00
2018-09-01T09:22:34.057Z,98550.00
2018-09-01T09:25:05.953Z,98544.00
2018-09-01T09:27:37.763Z,98538.00
2018-09-01T09:30:09.602Z,98535.00
2018-09-01T09:32:41.322Z,98540.00
2018-09-01T09:35:13.144Z,98535.00
2018-09-01T09:37:44.777Z,98539.00
2018-09-01T09:40:16.505Z,98544.00
2018-09-01T09:42:48.181Z,98538.00
2018-09-01T09:45:19.926Z,98541.00
2018-09-01T09:47:51.612Z,98532.00
2018-09-01T09:50:23.359Z,98534.00
2018-09-01T09:52:55.161Z,98531.00
2018-09-01T09:55:27.112Z,98533.00
2018-09-01T09:57:58.845Z,98533.00
2018-09-01T10:00:35.591Z,98537.00
2018-09-01T10:03:07.659Z,98531.00
2018-09-01T10:05:39.527Z,98534.00
2018-09-01T10:08:11.233Z,98528.00
2018-09-01T10:10:43.117Z,98526.00
2018-09-01T10:13:14.940Z,98524.00
2018-09-01T10:15:46.695Z,98525.00
2018-09-01T10:18:18.469Z,98517.00
2018-09-01T10:20:50.176Z,98523.00
2018-09-01T10:23:22.193Z,98519.00
2018-09-01T10:25:53.924Z,98518.00
2018-09-01T10:28:25.952Z,98514.00
2018-09-01T10:30:57.878Z,98513.00
2018-09-01T10:33:29.512Z,98512.00
2018-09-01T10:36:01.174Z,98512.00
2018-09-01T10:38:33.123Z,98506.00
2018-09-01T10:41:04.994Z,98500.00
2018-09-01T10:43:36.755Z,98500.00
2018-09-01T10:46:08.825Z,98491.00
2018-09-01T10:48:40.862Z,98491.00
2018-09-01T10:51:12.648Z,98481.00
2018-09-01T10:53:44.359Z,98483.00
2018-09-01T10:56:16.237Z,98490.00
2018-09-01T10:58:48.049Z,98488.00
2018-09-01T11:01:19.686Z,98488.00
2018-09-01T11:03:51.614Z,98483.00
2018-09-01T11:06:23.518Z,98485.00
2018-09-01T11:08:55.157Z,98488.00
2018-09-01T11:11:26.992Z,98482.00
2018-09-01T11:13:58.659Z,98482.00
2018-09-01T11:16:30.450Z,98481.00
2018-09-01T11:19:02.161Z,98481.00
2018-09-01T11:21:33.948Z,98483.00
2018-09-01T11:24:05.788Z,98482.00
2018-09-01T11:26:37.753Z,98481.00
2018-09-01T11:29:09.653Z,98481.00
2018-09-01T11:31:41.294Z,98482.00
2018-09-01T11:34:13.134Z,98480.00
2018-09-01T11:36:44.968Z,98479.00
2018-09-01T11:39:16.806Z,98483.00
2018-09-01T11:41:48.641Z,98494.00
2018-09-01T11:44:20.487Z,98494.00
2018-09-01T11:46:52.269Z,98493.00
2018-09-01T11:49:24.006Z,98488.00
2018-09-01T11:51:55.801Z,98495.00
2018-09-01T11:54:27.418Z,98502.00
2018-09-01T11:56:59.173Z,98501.00
2018-09-01T11:59:30.962Z,98501.00
2018-09-01T12:02:02.734Z,98505.00
2018-09-01T12:04:34.599Z,98506.00
2018-09-01T12:07:06.512Z,98513.00
2018-09-01T12:09:38.367Z,98506.00
2018-09-01T12:12:10.388Z,98505.00
2018-09-01T12:14:42.024Z,98503.00
2018-09-01T12:17:13.748Z,98501.00
2018-09-01T12:19:45.426Z,98498.00
2018-09-01T12:22:17.277Z,98500.00
2018-09-01T12:24:49.133Z,98491.00
2018-09-01T12:27:20.989Z,98495.00
2018-09-01T12:29:52.799Z,98497.00
2018-09-01T12:32:24.443Z,98493.00
2018-09-01T12:34:56.199Z,98491.00
2018-09-01T12:37:27.846Z,98493.00
2018-09-01T12:39:59.631Z,98498.00
2018-09-01T12:42:31.353Z,98491.00
2018-09-01T12:45:03.142Z,98494.00
2018-09-01T12:47:34.777Z,98492.00
2018-09-01T12:50:06.553Z,98493.00
2018-09-01T12:52:38.186Z,98492.00
2018-09-01T12:55:10.083Z,98494.00
2018-09-01T12:57:41.887Z,98489.00
2018-09-01T13:00:13.907Z,98491.00
2018-09-01T13:02:45.770Z,98493.00
2018-09-01T13:05:17.403Z,98488.00
2018-09-01T13:07:49.201Z,98486.00
2018-09-01T13:10:20.796Z,98489.00
2018-09-01T13:12:52.577Z,98486.00
2018-09-01T13:15:24.512Z,98483.00
2018-09-01T13:17:56.310Z,98480.00
2018-09-01T13:20:27.946Z,98487.00
2018-09-01T13:22:59.685Z,98483.00
2018-09-01T13:25:31.461Z,98480.00
2018-09-01T13:28:03.049Z,98483.00
2018-09-01T13:30:34.966Z,98485.00
2018-09-01T13:33:06.761Z,98481.00
2018-09-01T13:35:38.507Z,98479.00
2018-09-01T13:38:10.488Z,98483.00
2018-09-01T13:40:42.653Z,98487.00
2018-09-01T13:43:14.612Z,98486.00
2018-09-01T13:45:46.589Z,98484.00
2018-09-01T13:48:18.309Z,98485.00
2018-09-01T13:50:50.055Z,98483.00
2018-09-01T13:53:21.867Z,98483.00
2018-09-01T13:55:53.730Z,98479.00
2018-09-01T13:58:25.465Z,98486.00
2018-09-01T14:00:57.249Z,98482.00
2018-09-01T14:03:28.867Z,98481.00
2018-09-01T14:06:00.529Z,98481.00
2018-09-01T14:08:32.256Z,98485.00
2018-09-01T14:11:03.949Z,98483.00
2018-09-01T14:13:35.679Z,98487.00
2018-09-01T14:16:07.475Z,98490.00
2018-09-01T14:18:39.336Z,98490.00
2018-09-01T14:21:11.110Z,98492.00
2018-09-01T14:23:42.925Z,98491.00
2018-09-01T14:26:14.734Z,98492.00
2018-09-01T14:28:46.371Z,98496.00
2018-09-01T14:31:18.202Z,98497.00
2018-09-01T14:33:49.874Z,98500.00
2018-09-01T14:36:21.868Z,98505.00
2018-09-01T14:38:53.594Z,98501.00
2018-09-01T14:41:25.454Z,98508.00
2018-09-01T14:43:57.251Z,98501.00
2018-09-01T14:46:28.992Z,98499.00
2018-09-01T14:49:00.922Z,98498.00
2018-09-01T14:51:32.601Z,98505.00
2018-09-01T14:54:04.475Z,98500.00
2018-09-01T14:56:36.215Z,98499.00
2018-09-01T14:59:07.990Z,98498.00
2018-09-01T15:01:39.724Z,98495.00
2018-09-01T15:04:11.494Z,98494.00
2018-09-01T15:06:44.590Z,98495.00
2018-09-01T15:09:16.249Z,98503.00
2018-09-01T15:11:48.195Z,98504.00
2018-09-01T15:14:20.122Z,98502.00
2018-09-01T15:16:51.961Z,98504.00
2018-09-01T15:19:23.602Z,98501.00
2018-09-01T15:21:55.375Z,98495.00
2018-09-01T15:24:27.106Z,98501.00
2018-09-01T15:26:58.874Z,98504.00
2018-09-01T15:29:30.608Z,98503.00
2018-09-01T15:32:02.546Z,98502.00
2018-09-01T15:34:34.545Z,98505.00
2018-09-01T15:37:06.450Z,98513.00
2018-09-01T15:39:38.152Z,98513.00
2018-09-01T15:42:10.123Z,98513.00
2018-09-01T15:44:41.919Z,98513.00
2018-09-01T15:47:13.665Z,98516.00
2018-09-01T15:49:45.701Z,98517.00
2018-09-01T15:52:17.382Z,98515.00
2018-09-01T15:54:49.135Z,98514.00
2018-09-01T15:57:20.877Z,98515.00
2018-09-01T15:59:52.572Z,98520.00
2018-09-01T16:02:24.417Z,98524.00
2018-09-01T16:04:56.202Z,98524.00
2018-09-01T16:07:27.812Z,98530.00
2018-09-01T16:09:59.590Z,98531.00
2018-09-01T16:12:31.421Z,98534.00
2018-09-01T16:15:03.110Z,98530.00
2018-09-01T16:17:34.937Z,98527.00
2018-09-01T16:20:06.938Z,98532.00
2018-09-01T16:22:38.818Z,98534.00
2018-09-01T16:25:10.661Z,98532.00
2018-09-01T16:27:42.473Z,98532.00
2018-09-01T16:30:14.269Z,98534.00
2018-09-01T16:32:46.039Z,98535.00
2018-09-01T16:35:17.769Z,98536.00
2018-09-01T16:37:49.811Z,98530.00
2018-09-01T16:40:21.745Z,98535.00
2018-09-01T16:42:53.417Z,98531.00
2018-09-01T16:45:25.318Z,98533.00
2018-09-01T16:47:57.176Z,98528.00
2018-09-01T16:50:29.089Z,98527.00
2018-09-01T16:53:00.918Z,98528.00
2018-09-01T16:55:32.772Z,98530.00
2018-09-01T16:58:04.651Z,98533.00
2018-09-01T17:00:36.485Z,98531.00
2018-09-01T17:03:08.258Z,98528.00
2018-09-01T17:05:40.111Z,98521.00
2018-09-01T17:08:11.877Z,98523.00
2018-09-01T17:10:43.553Z,98518.00
2018-09-01T17:13:15.327Z,98522.00
2018-09-01T17:15:47.086Z,98522.00
2018-09-01T17:18:18.837Z,98526.00
2018-09-01T17:20:50.566Z,98531.00
2018-09-01T17:23:22.226Z,98532.00
2018-09-01T17:25:54.172Z,98534.00
2018-09-01T17:28:26.086Z,98530.00
2018-09-01T17:30:58.117Z,98535.00
2018-09-01T17:33:30.020Z,98531.00
2018-09-01T17:36:01.639Z,98535.00
2018-09-01T17:38:33.485Z,98534.00
2018-09-01T17:41:05.351Z,98528.00
2018-09-01T17:43:37.016Z,98533.00
2018-09-01T17:46:08.862Z,98534.00
2018-09-01T17:48:40.717Z,98537.00
2018-09-01T17:51:12.495Z,98538.00
2018-09-01T17:53:44.174Z,98536.00
2018-09-01T17:56:15.991Z,98541.00
2018-09-01T17:58:47.667Z,98540.00
2018-09-01T18:01:20.969Z,98546.00
2018-09-01T18:03:52.818Z,98545.00
2018-09-01T18:06:24.989Z,98543.00
2018-09-01T18:08:56.788Z,98546.00
2018-09-01T18:11:28.529Z,98545.00
2018-09-01T18:14:00.341Z,98545.00
2018-09-01T18:16:32.098Z,98545.00
2018-09-01T18:19:06.181Z,98545.00
2018-09-01T18:21:50.975Z,98549.00
2018-09-01T18:24:46.614Z,98546.00
2018-09-01T18:27:34.760Z,98547.00
2018-09-01T18:30:17.928Z,98543.00
2018-09-01T18:32:51.193Z,98546.00
2018-09-01T18:35:25.093Z,98547.00
2018-09-01T18:38:03.476Z,98549.00
2018-09-01T18:40:46.374Z,98549.00
2018-09-01T18:43:24.469Z,98545.00
2018-09-01T18:46:22.838Z,98543.00
2018-09-01T18:49:08.276Z,98548.00
2018-09-01T18:51:53.584Z,98551.00
2018-09-01T18:54:37.915Z,98556.00
2018-09-01T18:57:26.421Z,98553.00
2018-09-01T18:59:58.668Z,98557.00
2018-09-01T19:02:33.180Z,98557.00
2018-09-01T19:05:10.073Z,98555.00
2018-09-01T19:07:47.482Z,98559.00
2018-09-01T19:10:19.922Z,98560.00
2018-09-01T19:12:51.779Z,98558.00
2018-09-01T19:15:23.583Z,98561.00
2018-09-01T19:17:55.370Z,98563.00
2018-09-01T19:20:27.154Z,98560.00
2018-09-01T19:22:58.825Z,98559.00
2018-09-01T19:25:30.500Z,98560.00
2018-09-01T19:28:02.173Z,98563.00
2018-09-01T19:30:33.918Z,98562.00
2018-09-01T19:33:05.690Z,98561.00
2018-09-01T19:35:37.328Z,98560.00
2018-09-01T19:38:09.401Z,98552.00
2018-09-01T19:40:41.462Z,98556.00
2018-09-01T19:43:13.438Z,98556.00
2018-09-01T19:45:45.183Z,98551.00
2018-09-01T19:48:16.820Z,98550.00
2018-09-01T19:50:48.773Z,98548.00
2018-09-01T19:53:20.439Z,98544.00
2018-09-01T19:55:51.991Z,98538.00
2018-09-01T19:58:24.065Z,98530.00
2018-09-01T20:00:55.928Z,98526.00
2018-09-01T20:03:27.699Z,98529.00
2018-09-01T20:05:59.426Z,98526.00
2018-09-01T20:08:31.442Z,98520.00
2018-09-01T20:11:03.191Z,98518.00
2018-09-01T20:13:34.904Z,98517.00
2018-09-01T20:16:06.700Z,98517.00
2018-09-01T20:18:38.682Z,98510.00
2018-09-01T20:21:10.461Z,98509.00
2018-09-01T20:23:42.273Z,98510.00
2018-09-01T20:26:14.049Z,98510.00
2018-09-01T20:28:45.698Z,98516.00
2018-09-01T20:31:17.374Z,98516.00
2018-09-01T20:33:49.132Z,98518.00
2018-09-01T20:36:22.145Z,98521.00
2018-09-01T20:38:54.033Z,98517.00
2018-09-01T20:41:25.834Z,98518.00
2018-09-01T20:43:57.450Z,98518.00
2018-09-01T20:46:29.210Z,98513.00
2018-09-01T20:49:00.885Z,98518.00
2018-09-01T20:51:32.665Z,98523.00
2018-09-01T20:54:04.536Z,98520.00
2018-09-01T20:56:36.502Z,98516.00
2018-09-01T20:59:08.360Z,98517.00
2018-09-01T21:01:40.066Z,98523.00
2018-09-01T21:04:11.869Z,98517.00
2018-09-01T21:06:43.504Z,98518.00
2018-09-01T21:09:15.345Z,98512.00
2018-09-01T21:11:47.327Z,98507.00
2018-09-01T21:14:18.996Z,98508.00
2018-09-01T21:16:50.649Z,98513.00
2018-09-01T21:19:22.433Z,98514.00
2018-09-01T21:21:54.161Z,98514.00
2018-09-01T21:24:25.906Z,98518.00
2018-09-01T21:26:57.564Z,98519.00
2018-09-01T21:29:29.237Z,98526.00
2018-09-01T21:32:01.125Z,98522.00
2018-09-01T21:34:32.758Z,98521.00
2018-09-01T21:37:04.509Z,98518.00
2018-09-01T21:39:36.365Z,98520.00
2018-09-01T21:42:08.365Z,98522.00
2018-09-01T21:44:39.999Z,98510.00
2018-09-01T21:47:11.775Z,98505.00
2018-09-01T21:49:43.839Z,98501.00
2018-09-01T21:52:15.708Z,98502.00
2018-09-01T21:54:47.309Z,98504.00
2018-09-01T21:57:18.773Z,98507.00
2018-09-01T21:59:50.663Z,98501.00
2018-09-01T22:02:25.522Z,98503.00
2018-09-01T22:05:02.062Z,98503.00
2018-09-01T22:07:33.921Z,98502.00
2018-09-01T22:10:05.752Z,98503.00
2018-09-01T22:12:37.513Z,98502.00
2018-09-01T22:15:09.601Z,98500.00
2018-09-01T22:17:41.356Z,98501.00
2018-09-01T22:20:13.019Z,98502.00
2018-09-01T22:22:44.758Z,98497.00
2018-09-01T22:25:16.663Z,98503.00
2018-09-01T22:27:48.374Z,98504.00
2018-09-01T22:30:19.944Z,98494.00
2018-09-01T22:32:51.606Z,98495.00
2018-09-01T22:35:23.495Z,98496.00
2018-09-01T22:37:55.213Z,98497.00
2018-09-01T22:40:26.991Z,98498.00
2018-09-01T22:42:58.718Z,98491.00
2018-09-01T22:45:30.631Z,98493.00
2018-09-01T22:48:02.299Z,98498.00
2018-09-01T22:50:34.232Z,98498.00
2018-09-01T22:53:05.873Z,98491.00
2018-09-01T22:55:37.640Z,98488.00
2018-09-01T22:58:09.286Z,98489.00
2018-09-01T23:00:41.069Z,98488.00
2018-09-01T23:03:12.790Z,98487.00
2018-09-01T23:05:44.553Z,98489.00
2018-09-01T23:08:16.232Z,98488.00
2018-09-01T23:10:48.085Z,98491.00
2018-09-01T23:13:19.822Z,98493.00
2018-09-01T23:15:51.517Z,98495.00
2018-09-01T23:18:23.236Z,98499.00
2018-09-01T23:20:55.149Z,98501.00
2018-09-01T23:23:26.667Z,98500.00
2018-09-01T23:25:58.616Z,98507.00
2018-09-01T23:28:30.286Z,98497.00
2018-09-01T23:31:02.083Z,98498.00
2018-09-01T23:33:33.821Z,98501.00
2018-09-01T23:36:05.496Z,98503.00
2018-09-01T23:38:37.213Z,98500.00
2018-09-01T23:41:09.277Z,98495.00
2018-09-01T23:43:40.941Z,98496.00
2018-09-01T23:46:12.789Z,98492.00
2018-09-01T23:48:44.604Z,98496.00
2018-09-01T23:51:16.229Z,98495.00
2018-09-01T23:53:47.991Z,98497.00
2018-09-01T23:56:19.733Z,98493.00
2018-09-01T23:58:51.534Z,98492.00
